sensor_id;sensor_type;location;lat;lon;timestamp;temperature;humidity
16970;DHT22;8601;48.718;8.992;2022-10-17T00:00:12;14.80;99.90
16970;DHT22;8601;48.718;8.992;2022-10-17T00:02:39;14.80;99.90
16970;DHT22;8601;48.718;8.992;2022-10-17T00:05:07;14.80;99.90
16970;DHT22;8601;48.718;8.992;2022-10-17T00:10:33;14.80;99.90
16970;DHT22;8601;48.718;8.992;2022-10-17T00:16:49;14.80;99.90
16970;DHT22;8601;48.718;8.992;2022-10-17T00:19:18;14.80;99.90
16970;DHT22;8601;48.718;8.992;2022-10-17T00:21:47;14.70;99.90
16970;DHT22;8601;48.718;8.992;2022-10-17T00:24:15;14.70;99.90
16970;DHT22;8601;48.718;8.992;2022-10-17T00:26:43;14.80;99.90
16970;DHT22;8601;48.718;8.992;2022-10-17T00:29:11;14.70;99.90
16970;DHT22;8601;48.718;8.992;2022-10-17T00:31:38;14.60;99.90
16970;DHT22;8601;48.718;8.992;2022-10-17T00:34:42;14.60;99.90
16970;DHT22;8601;48.718;8.992;2022-10-17T00:37:10;14.50;99.90
16970;DHT22;8601;48.718;8.992;2022-10-17T00:39:37;14.40;99.90
16970;DHT22;8601;48.718;8.992;2022-10-17T00:42:05;14.40;99.90
16970;DHT22;8601;48.718;8.992;2022-10-17T00:47:52;14.40;99.90
16970;DHT22;8601;48.718;8.992;2022-10-17T00:50:20;14.40;99.90
16970;DHT22;8601;48.718;8.992;2022-10-17T00:52:49;14.50;99.90
16970;DHT22;8601;48.718;8.992;2022-10-17T00:55:21;14.60;99.90
16970;DHT22;8601;48.718;8.992;2022-10-17T00:57:50;14.60;99.90
16970;DHT22;8601;48.718;8.992;2022-10-17T01:00:19;14.60;99.90
16970;DHT22;8601;48.718;8.992;2022-10-17T01:02:46;14.60;99.90
16970;DHT22;8601;48.718;8.992;2022-10-17T01:05:16;14.60;99.90
16970;DHT22;8601;48.718;8.992;2022-10-17T01:07:44;14.60;99.90
16970;DHT22;8601;48.718;8.992;2022-10-17T01:10:12;14.60;99.90
16970;DHT22;8601;48.718;8.992;2022-10-17T01:12:47;14.60;99.90
16970;DHT22;8601;48.718;8.992;2022-10-17T01:15:26;14.70;99.90
16970;DHT22;8601;48.718;8.992;2022-10-17T01:18:02;14.60;99.90
16970;DHT22;8601;48.718;8.992;2022-10-17T01:20:52;14.60;99.90
16970;DHT22;8601;48.718;8.992;2022-10-17T01:26:26;14.50;99.90
16970;DHT22;8601;48.718;8.992;2022-10-17T01:29:30;14.40;99.90
16970;DHT22;8601;48.718;8.992;2022-10-17T01:32:03;14.30;99.90
16970;DHT22;8601;48.718;8.992;2022-10-17T01:34:37;14.20;99.90
16970;DHT22;8601;48.718;8.992;2022-10-17T01:37:08;14.10;99.90
16970;DHT22;8601;48.718;8.992;2022-10-17T01:39:41;14.00;99.90
16970;DHT22;8601;48.718;8.992;2022-10-17T01:42:14;13.90;99.90
16970;DHT22;8601;48.718;8.992;2022-10-17T01:44:47;13.80;99.90
16970;DHT22;8601;48.718;8.992;2022-10-17T01:47:18;13.80;99.90
16970;DHT22;8601;48.718;8.992;2022-10-17T01:49:56;13.70;99.90
16970;DHT22;8601;48.718;8.992;2022-10-17T01:52:27;13.70;99.90
16970;DHT22;8601;48.718;8.992;2022-10-17T01:54:59;13.70;99.90
16970;DHT22;8601;48.718;8.992;2022-10-17T01:57:31;13.70;99.90
16970;DHT22;8601;48.718;8.992;2022-10-17T02:00:14;13.70;99.90
16970;DHT22;8601;48.718;8.992;2022-10-17T02:02:44;13.60;99.90
16970;DHT22;8601;48.718;8.992;2022-10-17T02:05:13;13.60;99.90
16970;DHT22;8601;48.718;8.992;2022-10-17T02:07:41;13.60;99.90
16970;DHT22;8601;48.718;8.992;2022-10-17T02:10:14;13.60;99.90
16970;DHT22;8601;48.718;8.992;2022-10-17T02:12:54;13.60;99.90
16970;DHT22;8601;48.718;8.992;2022-10-17T02:15:38;13.50;99.90
16970;DHT22;8601;48.718;8.992;2022-10-17T02:21:23;13.40;99.90
16970;DHT22;8601;48.718;8.992;2022-10-17T02:23:53;13.50;99.90
16970;DHT22;8601;48.718;8.992;2022-10-17T02:26:31;13.50;99.90
16970;DHT22;8601;48.718;8.992;2022-10-17T02:29:05;13.50;99.90
16970;DHT22;8601;48.718;8.992;2022-10-17T02:31:40;13.50;99.90
16970;DHT22;8601;48.718;8.992;2022-10-17T02:34:18;13.50;99.90
16970;DHT22;8601;48.718;8.992;2022-10-17T02:36:57;13.40;99.90
16970;DHT22;8601;48.718;8.992;2022-10-17T02:39:26;13.30;99.90
16970;DHT22;8601;48.718;8.992;2022-10-17T02:41:56;13.20;99.90
16970;DHT22;8601;48.718;8.992;2022-10-17T02:44:28;13.10;99.90
16970;DHT22;8601;48.718;8.992;2022-10-17T02:47:12;13.00;99.90
16970;DHT22;8601;48.718;8.992;2022-10-17T02:49:52;12.90;99.90
16970;DHT22;8601;48.718;8.992;2022-10-17T02:52:27;12.90;99.90
16970;DHT22;8601;48.718;8.992;2022-10-17T02:54:58;12.80;99.90
16970;DHT22;8601;48.718;8.992;2022-10-17T02:57:28;12.90;99.90
16970;DHT22;8601;48.718;8.992;2022-10-17T02:59:58;12.80;99.90
16970;DHT22;8601;48.718;8.992;2022-10-17T03:02:26;12.80;99.90
16970;DHT22;8601;48.718;8.992;2022-10-17T03:04:53;12.60;99.90
16970;DHT22;8601;48.718;8.992;2022-10-17T03:07:22;12.60;99.90
16970;DHT22;8601;48.718;8.992;2022-10-17T03:09:55;12.40;99.90
16970;DHT22;8601;48.718;8.992;2022-10-17T03:12:22;12.30;99.90
16970;DHT22;8601;48.718;8.992;2022-10-17T03:15:09;12.30;99.90
16970;DHT22;8601;48.718;8.992;2022-10-17T03:18:09;12.20;99.90
16970;DHT22;8601;48.718;8.992;2022-10-17T03:20:38;12.30;99.90
16970;DHT22;8601;48.718;8.992;2022-10-17T03:23:06;12.40;99.90
16970;DHT22;8601;48.718;8.992;2022-10-17T03:25:33;12.40;99.90
16970;DHT22;8601;48.718;8.992;2022-10-17T03:28:00;12.40;99.90
16970;DHT22;8601;48.718;8.992;2022-10-17T03:30:27;12.40;99.90
16970;DHT22;8601;48.718;8.992;2022-10-17T03:33:08;12.40;99.90
16970;DHT22;8601;48.718;8.992;2022-10-17T03:35:37;12.50;99.90
16970;DHT22;8601;48.718;8.992;2022-10-17T03:38:06;12.50;99.90
16970;DHT22;8601;48.718;8.992;2022-10-17T03:40:32;12.40;99.90
16970;DHT22;8601;48.718;8.992;2022-10-17T03:43:00;12.30;99.90
16970;DHT22;8601;48.718;8.992;2022-10-17T03:45:26;12.20;99.90
16970;DHT22;8601;48.718;8.992;2022-10-17T03:47:53;12.20;99.90
16970;DHT22;8601;48.718;8.992;2022-10-17T03:50:20;12.10;99.90
16970;DHT22;8601;48.718;8.992;2022-10-17T03:52:47;12.00;99.90
16970;DHT22;8601;48.718;8.992;2022-10-17T03:55:21;11.90;99.90
16970;DHT22;8601;48.718;8.992;2022-10-17T03:57:47;11.80;99.90
16970;DHT22;8601;48.718;8.992;2022-10-17T04:00:14;11.80;99.90
16970;DHT22;8601;48.718;8.992;2022-10-17T04:03:11;11.80;99.90
16970;DHT22;8601;48.718;8.992;2022-10-17T04:05:38;11.80;99.90
16970;DHT22;8601;48.718;8.992;2022-10-17T04:08:05;11.90;99.90
16970;DHT22;8601;48.718;8.992;2022-10-17T04:10:33;11.70;99.90
16970;DHT22;8601;48.718;8.992;2022-10-17T04:13:00;11.80;99.90
16970;DHT22;8601;48.718;8.992;2022-10-17T04:15:27;11.70;99.90
16970;DHT22;8601;48.718;8.992;2022-10-17T04:17:54;11.80;99.90
16970;DHT22;8601;48.718;8.992;2022-10-17T04:20:21;11.80;99.90
16970;DHT22;8601;48.718;8.992;2022-10-17T04:22:47;11.90;99.90
16970;DHT22;8601;48.718;8.992;2022-10-17T04:25:14;11.80;99.90
16970;DHT22;8601;48.718;8.992;2022-10-17T04:27:42;11.80;99.90
16970;DHT22;8601;48.718;8.992;2022-10-17T04:30:10;11.80;99.90
16970;DHT22;8601;48.718;8.992;2022-10-17T04:32:37;11.90;99.90
16970;DHT22;8601;48.718;8.992;2022-10-17T04:35:05;12.00;99.90
16970;DHT22;8601;48.718;8.992;2022-10-17T04:37:32;12.10;99.90
16970;DHT22;8601;48.718;8.992;2022-10-17T04:40:07;12.10;99.90
16970;DHT22;8601;48.718;8.992;2022-10-17T04:42:34;12.00;99.90
16970;DHT22;8601;48.718;8.992;2022-10-17T04:45:18;12.10;99.90
16970;DHT22;8601;48.718;8.992;2022-10-17T04:47:45;12.30;99.90
16970;DHT22;8601;48.718;8.992;2022-10-17T04:50:25;12.40;99.90
16970;DHT22;8601;48.718;8.992;2022-10-17T04:52:52;12.50;99.90
16970;DHT22;8601;48.718;8.992;2022-10-17T04:55:19;12.60;99.90
16970;DHT22;8601;48.718;8.992;2022-10-17T04:57:46;12.70;99.90
16970;DHT22;8601;48.718;8.992;2022-10-17T05:00:15;12.80;99.90
16970;DHT22;8601;48.718;8.992;2022-10-17T05:02:44;12.80;99.90
16970;DHT22;8601;48.718;8.992;2022-10-17T05:05:11;12.70;99.90
16970;DHT22;8601;48.718;8.992;2022-10-17T05:07:39;12.70;99.90
16970;DHT22;8601;48.718;8.992;2022-10-17T05:10:07;12.70;99.90
16970;DHT22;8601;48.718;8.992;2022-10-17T05:12:34;12.70;99.90
16970;DHT22;8601;48.718;8.992;2022-10-17T05:15:13;12.80;99.90
16970;DHT22;8601;48.718;8.992;2022-10-17T05:17:40;12.80;99.90
16970;DHT22;8601;48.718;8.992;2022-10-17T05:20:09;12.90;99.90
16970;DHT22;8601;48.718;8.992;2022-10-17T05:22:37;12.90;99.90
16970;DHT22;8601;48.718;8.992;2022-10-17T05:25:06;12.90;99.90
16970;DHT22;8601;48.718;8.992;2022-10-17T05:27:33;13.00;99.90
16970;DHT22;8601;48.718;8.992;2022-10-17T05:30:00;13.00;99.90
16970;DHT22;8601;48.718;8.992;2022-10-17T05:32:27;13.10;99.90
16970;DHT22;8601;48.718;8.992;2022-10-17T05:34:53;13.10;99.90
16970;DHT22;8601;48.718;8.992;2022-10-17T05:37:22;13.00;99.90
16970;DHT22;8601;48.718;8.992;2022-10-17T05:39:49;12.90;99.90
16970;DHT22;8601;48.718;8.992;2022-10-17T05:42:16;12.80;99.90
16970;DHT22;8601;48.718;8.992;2022-10-17T05:44:43;12.80;99.90
16970;DHT22;8601;48.718;8.992;2022-10-17T05:47:10;12.70;99.90
16970;DHT22;8601;48.718;8.992;2022-10-17T05:49:37;12.80;99.90
16970;DHT22;8601;48.718;8.992;2022-10-17T05:52:04;12.90;99.90
16970;DHT22;8601;48.718;8.992;2022-10-17T05:54:32;12.80;99.90
16970;DHT22;8601;48.718;8.992;2022-10-17T05:57:00;12.60;99.90
16970;DHT22;8601;48.718;8.992;2022-10-17T05:59:27;12.70;99.90
16970;DHT22;8601;48.718;8.992;2022-10-17T06:01:54;12.80;99.90
16970;DHT22;8601;48.718;8.992;2022-10-17T06:04:21;12.90;99.90
16970;DHT22;8601;48.718;8.992;2022-10-17T06:06:48;12.90;99.90
16970;DHT22;8601;48.718;8.992;2022-10-17T06:09:15;13.00;99.90
16970;DHT22;8601;48.718;8.992;2022-10-17T06:11:51;12.80;99.90
16970;DHT22;8601;48.718;8.992;2022-10-17T06:14:19;12.60;99.90
16970;DHT22;8601;48.718;8.992;2022-10-17T06:16:58;12.50;99.90
16970;DHT22;8601;48.718;8.992;2022-10-17T06:19:25;12.20;99.90
16970;DHT22;8601;48.718;8.992;2022-10-17T06:21:52;12.20;99.90
16970;DHT22;8601;48.718;8.992;2022-10-17T06:24:19;12.30;99.90
16970;DHT22;8601;48.718;8.992;2022-10-17T06:26:46;12.20;99.90
16970;DHT22;8601;48.718;8.992;2022-10-17T06:29:15;12.10;99.90
16970;DHT22;8601;48.718;8.992;2022-10-17T06:31:43;12.00;99.90
16970;DHT22;8601;48.718;8.992;2022-10-17T06:34:10;12.00;99.90
16970;DHT22;8601;48.718;8.992;2022-10-17T06:36:37;12.00;99.90
16970;DHT22;8601;48.718;8.992;2022-10-17T06:39:04;12.00;99.90
16970;DHT22;8601;48.718;8.992;2022-10-17T06:41:31;12.20;99.90
16970;DHT22;8601;48.718;8.992;2022-10-17T06:43:58;12.20;99.90
16970;DHT22;8601;48.718;8.992;2022-10-17T06:46:50;12.30;99.90
16970;DHT22;8601;48.718;8.992;2022-10-17T06:49:22;12.40;99.90
16970;DHT22;8601;48.718;8.992;2022-10-17T06:51:48;12.40;99.90
16970;DHT22;8601;48.718;8.992;2022-10-17T06:54:15;12.50;99.90
16970;DHT22;8601;48.718;8.992;2022-10-17T06:56:55;12.50;99.90
16970;DHT22;8601;48.718;8.992;2022-10-17T06:59:22;12.50;99.90
16970;DHT22;8601;48.718;8.992;2022-10-17T07:01:52;12.60;99.90
16970;DHT22;8601;48.718;8.992;2022-10-17T07:04:19;12.60;99.90
16970;DHT22;8601;48.718;8.992;2022-10-17T07:06:50;12.70;99.90
16970;DHT22;8601;48.718;8.992;2022-10-17T07:09:30;12.70;99.90
16970;DHT22;8601;48.718;8.992;2022-10-17T07:12:20;12.80;99.90
16970;DHT22;8601;48.718;8.992;2022-10-17T07:14:48;12.80;99.90
16970;DHT22;8601;48.718;8.992;2022-10-17T07:17:17;12.90;99.90
16970;DHT22;8601;48.718;8.992;2022-10-17T07:20:01;13.40;99.90
16970;DHT22;8601;48.718;8.992;2022-10-17T07:22:27;14.20;99.90
16970;DHT22;8601;48.718;8.992;2022-10-17T07:24:54;14.10;99.90
16970;DHT22;8601;48.718;8.992;2022-10-17T07:27:21;14.10;99.90
16970;DHT22;8601;48.718;8.992;2022-10-17T07:29:48;14.10;99.90
16970;DHT22;8601;48.718;8.992;2022-10-17T07:32:16;14.20;99.90
16970;DHT22;8601;48.718;8.992;2022-10-17T07:34:43;14.20;99.90
16970;DHT22;8601;48.718;8.992;2022-10-17T07:37:10;14.20;99.90
16970;DHT22;8601;48.718;8.992;2022-10-17T07:39:37;14.20;99.90
16970;DHT22;8601;48.718;8.992;2022-10-17T07:42:05;14.40;99.90
16970;DHT22;8601;48.718;8.992;2022-10-17T07:44:33;14.80;99.90
16970;DHT22;8601;48.718;8.992;2022-10-17T07:47:01;14.70;99.90
16970;DHT22;8601;48.718;8.992;2022-10-17T07:49:29;14.60;99.90
16970;DHT22;8601;48.718;8.992;2022-10-17T07:51:56;14.60;99.90
16970;DHT22;8601;48.718;8.992;2022-10-17T07:54:23;14.60;99.90
16970;DHT22;8601;48.718;8.992;2022-10-17T07:57:17;14.70;99.90
16970;DHT22;8601;48.718;8.992;2022-10-17T07:59:57;14.70;99.90
16970;DHT22;8601;48.718;8.992;2022-10-17T08:02:25;14.90;99.90
16970;DHT22;8601;48.718;8.992;2022-10-17T08:04:55;14.90;99.90
16970;DHT22;8601;48.718;8.992;2022-10-17T08:07:22;15.00;99.90
16970;DHT22;8601;48.718;8.992;2022-10-17T08:09:49;15.00;99.90
16970;DHT22;8601;48.718;8.992;2022-10-17T08:12:16;15.10;99.90
16970;DHT22;8601;48.718;8.992;2022-10-17T08:14:43;15.30;99.90
16970;DHT22;8601;48.718;8.992;2022-10-17T08:17:10;15.30;99.90
16970;DHT22;8601;48.718;8.992;2022-10-17T08:19:37;15.40;99.90
16970;DHT22;8601;48.718;8.992;2022-10-17T08:22:06;15.60;99.90
16970;DHT22;8601;48.718;8.992;2022-10-17T08:24:40;15.60;99.90
16970;DHT22;8601;48.718;8.992;2022-10-17T08:27:09;15.70;99.90
16970;DHT22;8601;48.718;8.992;2022-10-17T08:29:38;15.80;99.90
16970;DHT22;8601;48.718;8.992;2022-10-17T08:32:05;15.90;99.90
16970;DHT22;8601;48.718;8.992;2022-10-17T08:34:33;16.00;99.90
16970;DHT22;8601;48.718;8.992;2022-10-17T08:37:00;16.10;99.90
16970;DHT22;8601;48.718;8.992;2022-10-17T08:39:28;16.20;99.90
16970;DHT22;8601;48.718;8.992;2022-10-17T08:42:08;16.30;99.90
16970;DHT22;8601;48.718;8.992;2022-10-17T08:44:58;16.50;99.90
16970;DHT22;8601;48.718;8.992;2022-10-17T08:47:28;16.70;99.90
16970;DHT22;8601;48.718;8.992;2022-10-17T08:50:02;17.00;99.90
16970;DHT22;8601;48.718;8.992;2022-10-17T08:53:00;17.30;99.90
16970;DHT22;8601;48.718;8.992;2022-10-17T08:55:35;17.50;99.90
16970;DHT22;8601;48.718;8.992;2022-10-17T08:58:03;18.00;99.90
16970;DHT22;8601;48.718;8.992;2022-10-17T09:00:52;18.20;99.90
16970;DHT22;8601;48.718;8.992;2022-10-17T09:03:44;18.50;99.90
16970;DHT22;8601;48.718;8.992;2022-10-17T09:06:17;18.80;99.90
16970;DHT22;8601;48.718;8.992;2022-10-17T09:08:55;19.00;99.90
16970;DHT22;8601;48.718;8.992;2022-10-17T09:11:47;19.20;99.90
16970;DHT22;8601;48.718;8.992;2022-10-17T09:14:30;19.40;99.90
16970;DHT22;8601;48.718;8.992;2022-10-17T09:17:10;19.40;99.90
16970;DHT22;8601;48.718;8.992;2022-10-17T09:19:43;19.60;99.90
16970;DHT22;8601;48.718;8.992;2022-10-17T09:22:15;19.80;99.90
16970;DHT22;8601;48.718;8.992;2022-10-17T09:24:47;19.90;99.90
16970;DHT22;8601;48.718;8.992;2022-10-17T09:27:23;20.00;99.90
16970;DHT22;8601;48.718;8.992;2022-10-17T09:29:54;20.00;99.90
16970;DHT22;8601;48.718;8.992;2022-10-17T09:32:24;20.20;99.90
16970;DHT22;8601;48.718;8.992;2022-10-17T09:34:51;20.20;99.90
16970;DHT22;8601;48.718;8.992;2022-10-17T09:40:21;20.60;99.90
16970;DHT22;8601;48.718;8.992;2022-10-17T09:42:51;20.70;99.90
16970;DHT22;8601;48.718;8.992;2022-10-17T09:45:20;20.90;99.90
16970;DHT22;8601;48.718;8.992;2022-10-17T09:47:55;21.10;99.90
16970;DHT22;8601;48.718;8.992;2022-10-17T09:50:26;21.30;99.90
16970;DHT22;8601;48.718;8.992;2022-10-17T09:52:55;21.50;99.90
16970;DHT22;8601;48.718;8.992;2022-10-17T09:55:29;21.50;99.90
16970;DHT22;8601;48.718;8.992;2022-10-17T09:58:01;21.50;99.90
16970;DHT22;8601;48.718;8.992;2022-10-17T10:00:30;21.70;98.80
16970;DHT22;8601;48.718;8.992;2022-10-17T10:03:15;21.90;97.80
16970;DHT22;8601;48.718;8.992;2022-10-17T10:05:56;21.90;96.70
16970;DHT22;8601;48.718;8.992;2022-10-17T10:08:26;22.00;97.10
16970;DHT22;8601;48.718;8.992;2022-10-17T10:10:57;22.30;97.80
16970;DHT22;8601;48.718;8.992;2022-10-17T10:13:50;22.30;96.70
16970;DHT22;8601;48.718;8.992;2022-10-17T10:16:22;22.20;96.70
16970;DHT22;8601;48.718;8.992;2022-10-17T10:18:58;22.30;95.00
16970;DHT22;8601;48.718;8.992;2022-10-17T10:21:26;22.30;95.50
16970;DHT22;8601;48.718;8.992;2022-10-17T10:24:11;22.40;94.10
16970;DHT22;8601;48.718;8.992;2022-10-17T10:26:41;22.50;94.40
16970;DHT22;8601;48.718;8.992;2022-10-17T10:29:26;22.50;94.10
16970;DHT22;8601;48.718;8.992;2022-10-17T10:31:56;22.50;93.80
16970;DHT22;8601;48.718;8.992;2022-10-17T10:34:27;22.40;92.90
16970;DHT22;8601;48.718;8.992;2022-10-17T10:36:58;22.40;94.00
16970;DHT22;8601;48.718;8.992;2022-10-17T10:39:34;22.40;93.70
16970;DHT22;8601;48.718;8.992;2022-10-17T10:42:05;22.50;94.20
16970;DHT22;8601;48.718;8.992;2022-10-17T10:44:36;22.60;92.70
16970;DHT22;8601;48.718;8.992;2022-10-17T10:47:07;22.70;93.60
16970;DHT22;8601;48.718;8.992;2022-10-17T10:49:43;22.80;93.50
16970;DHT22;8601;48.718;8.992;2022-10-17T10:52:16;23.00;91.50
16970;DHT22;8601;48.718;8.992;2022-10-17T11:01:29;23.20;92.30
16970;DHT22;8601;48.718;8.992;2022-10-17T11:04:07;23.30;89.70
16970;DHT22;8601;48.718;8.992;2022-10-17T11:06:40;23.30;88.50
16970;DHT22;8601;48.718;8.992;2022-10-17T11:09:24;23.50;91.20
16970;DHT22;8601;48.718;8.992;2022-10-17T11:12:06;23.50;90.10
16970;DHT22;8601;48.718;8.992;2022-10-17T11:14:42;23.60;90.30
16970;DHT22;8601;48.718;8.992;2022-10-17T11:17:19;23.60;90.70
16970;DHT22;8601;48.718;8.992;2022-10-17T11:19:54;23.70;87.50
16970;DHT22;8601;48.718;8.992;2022-10-17T11:22:27;23.70;88.10
16970;DHT22;8601;48.718;8.992;2022-10-17T11:24:58;23.80;88.60
16970;DHT22;8601;48.718;8.992;2022-10-17T11:27:44;23.90;89.10
16970;DHT22;8601;48.718;8.992;2022-10-17T11:30:20;24.00;87.10
16970;DHT22;8601;48.718;8.992;2022-10-17T11:32:59;24.10;87.70
16970;DHT22;8601;48.718;8.992;2022-10-17T11:35:28;24.10;86.20
16970;DHT22;8601;48.718;8.992;2022-10-17T11:38:20;24.20;86.20
16970;DHT22;8601;48.718;8.992;2022-10-17T11:40:49;24.10;84.80
16970;DHT22;8601;48.718;8.992;2022-10-17T11:43:20;24.10;87.20
16970;DHT22;8601;48.718;8.992;2022-10-17T11:46:00;24.10;85.30
16970;DHT22;8601;48.718;8.992;2022-10-17T11:48:34;24.20;85.10
16970;DHT22;8601;48.718;8.992;2022-10-17T11:51:07;24.20;85.00
16970;DHT22;8601;48.718;8.992;2022-10-17T11:53:47;24.30;85.70
16970;DHT22;8601;48.718;8.992;2022-10-17T11:56:20;24.40;86.40
16970;DHT22;8601;48.718;8.992;2022-10-17T11:58:59;24.30;83.30
16970;DHT22;8601;48.718;8.992;2022-10-17T12:01:47;24.30;83.00
16970;DHT22;8601;48.718;8.992;2022-10-17T12:04:44;24.40;81.80
16970;DHT22;8601;48.718;8.992;2022-10-17T12:07:35;24.50;83.10
16970;DHT22;8601;48.718;8.992;2022-10-17T12:10:14;24.70;84.70
16970;DHT22;8601;48.718;8.992;2022-10-17T12:12:43;24.70;82.20
16970;DHT22;8601;48.718;8.992;2022-10-17T12:15:34;24.80;80.80
16970;DHT22;8601;48.718;8.992;2022-10-17T12:18:02;24.80;79.90
16970;DHT22;8601;48.718;8.992;2022-10-17T12:20:33;24.80;80.50
16970;DHT22;8601;48.718;8.992;2022-10-17T12:23:04;24.80;80.50
16970;DHT22;8601;48.718;8.992;2022-10-17T12:28:33;24.80;78.40
16970;DHT22;8601;48.718;8.992;2022-10-17T12:31:08;24.80;82.40
16970;DHT22;8601;48.718;8.992;2022-10-17T12:33:47;24.70;78.30
16970;DHT22;8601;48.718;8.992;2022-10-17T12:39:49;24.80;76.90
16970;DHT22;8601;48.718;8.992;2022-10-17T12:42:45;24.80;73.30
16970;DHT22;8601;48.718;8.992;2022-10-17T12:45:47;24.80;70.70
16970;DHT22;8601;48.718;8.992;2022-10-17T12:51:28;25.00;70.00
16970;DHT22;8601;48.718;8.992;2022-10-17T12:54:10;25.00;70.20
16970;DHT22;8601;48.718;8.992;2022-10-17T12:56:42;24.90;68.70
16970;DHT22;8601;48.718;8.992;2022-10-17T13:02:19;24.90;68.90
16970;DHT22;8601;48.718;8.992;2022-10-17T13:04:47;24.80;68.20
16970;DHT22;8601;48.718;8.992;2022-10-17T13:07:18;24.90;70.60
16970;DHT22;8601;48.718;8.992;2022-10-17T13:09:46;24.90;69.50
16970;DHT22;8601;48.718;8.992;2022-10-17T13:12:20;24.80;67.00
16970;DHT22;8601;48.718;8.992;2022-10-17T13:14:50;24.80;69.10
16970;DHT22;8601;48.718;8.992;2022-10-17T13:17:40;24.90;69.00
16970;DHT22;8601;48.718;8.992;2022-10-17T13:20:18;24.90;69.40
16970;DHT22;8601;48.718;8.992;2022-10-17T13:22:45;24.90;70.80
16970;DHT22;8601;48.718;8.992;2022-10-17T13:25:15;24.80;68.60
16970;DHT22;8601;48.718;8.992;2022-10-17T13:27:44;24.80;68.50
16970;DHT22;8601;48.718;8.992;2022-10-17T13:30:30;24.80;69.50
16970;DHT22;8601;48.718;8.992;2022-10-17T13:33:03;24.80;70.30
16970;DHT22;8601;48.718;8.992;2022-10-17T13:35:43;24.70;69.40
16970;DHT22;8601;48.718;8.992;2022-10-17T13:38:22;24.60;75.80
16970;DHT22;8601;48.718;8.992;2022-10-17T13:40:51;24.50;80.20
16970;DHT22;8601;48.718;8.992;2022-10-17T13:43:21;24.40;82.00
16970;DHT22;8601;48.718;8.992;2022-10-17T13:46:21;24.20;82.60
16970;DHT22;8601;48.718;8.992;2022-10-17T13:48:50;24.40;78.00
16970;DHT22;8601;48.718;8.992;2022-10-17T13:51:17;24.40;77.10
16970;DHT22;8601;48.718;8.992;2022-10-17T13:53:45;24.50;74.50
16970;DHT22;8601;48.718;8.992;2022-10-17T13:56:25;24.50;74.00
16970;DHT22;8601;48.718;8.992;2022-10-17T13:58:57;24.50;75.50
16970;DHT22;8601;48.718;8.992;2022-10-17T14:01:28;24.50;77.30
16970;DHT22;8601;48.718;8.992;2022-10-17T14:03:55;24.60;75.30
16970;DHT22;8601;48.718;8.992;2022-10-17T14:06:24;24.50;76.20
16970;DHT22;8601;48.718;8.992;2022-10-17T14:08:56;24.50;71.30
16970;DHT22;8601;48.718;8.992;2022-10-17T14:11:32;24.50;71.40
16970;DHT22;8601;48.718;8.992;2022-10-17T14:14:03;24.40;68.90
16970;DHT22;8601;48.718;8.992;2022-10-17T14:16:35;24.50;71.80
16970;DHT22;8601;48.718;8.992;2022-10-17T14:19:24;24.50;70.70
16970;DHT22;8601;48.718;8.992;2022-10-17T14:21:53;24.30;70.30
16970;DHT22;8601;48.718;8.992;2022-10-17T14:24:28;24.30;72.30
16970;DHT22;8601;48.718;8.992;2022-10-17T14:26:58;24.30;71.40
16970;DHT22;8601;48.718;8.992;2022-10-17T14:32:36;24.20;71.20
16970;DHT22;8601;48.718;8.992;2022-10-17T14:35:16;24.20;72.00
16970;DHT22;8601;48.718;8.992;2022-10-17T14:37:44;24.10;70.80
16970;DHT22;8601;48.718;8.992;2022-10-17T14:40:17;24.00;72.50
16970;DHT22;8601;48.718;8.992;2022-10-17T14:42:44;24.00;72.80
16970;DHT22;8601;48.718;8.992;2022-10-17T14:45:14;23.90;71.60
16970;DHT22;8601;48.718;8.992;2022-10-17T14:47:59;23.80;71.40
16970;DHT22;8601;48.718;8.992;2022-10-17T14:50:29;23.70;73.30
16970;DHT22;8601;48.718;8.992;2022-10-17T14:53:18;23.70;72.10
16970;DHT22;8601;48.718;8.992;2022-10-17T14:55:54;23.60;78.90
16970;DHT22;8601;48.718;8.992;2022-10-17T14:58:24;23.60;73.70
16970;DHT22;8601;48.718;8.992;2022-10-17T15:00:53;23.50;73.90
16970;DHT22;8601;48.718;8.992;2022-10-17T15:03:21;23.50;73.40
16970;DHT22;8601;48.718;8.992;2022-10-17T15:05:49;23.50;73.10
16970;DHT22;8601;48.718;8.992;2022-10-17T15:08:21;23.50;73.10
16970;DHT22;8601;48.718;8.992;2022-10-17T15:10:49;23.40;73.70
16970;DHT22;8601;48.718;8.992;2022-10-17T15:13:43;23.40;73.40
16970;DHT22;8601;48.718;8.992;2022-10-17T15:16:15;23.20;82.60
16970;DHT22;8601;48.718;8.992;2022-10-17T15:18:56;22.80;86.20
16970;DHT22;8601;48.718;8.992;2022-10-17T15:21:26;22.40;88.10
16970;DHT22;8601;48.718;8.992;2022-10-17T15:23:54;22.30;80.20
16970;DHT22;8601;48.718;8.992;2022-10-17T15:26:33;22.20;89.50
16970;DHT22;8601;48.718;8.992;2022-10-17T15:29:00;22.10;89.00
16970;DHT22;8601;48.718;8.992;2022-10-17T15:31:42;22.10;87.20
16970;DHT22;8601;48.718;8.992;2022-10-17T15:34:11;21.80;90.70
16970;DHT22;8601;48.718;8.992;2022-10-17T15:36:39;21.70;91.60
16970;DHT22;8601;48.718;8.992;2022-10-17T15:39:09;21.60;90.90
16970;DHT22;8601;48.718;8.992;2022-10-17T15:41:36;21.40;92.10
16970;DHT22;8601;48.718;8.992;2022-10-17T15:44:22;21.30;91.70
16970;DHT22;8601;48.718;8.992;2022-10-17T15:46:49;21.10;92.70
16970;DHT22;8601;48.718;8.992;2022-10-17T15:49:18;21.00;92.80
16970;DHT22;8601;48.718;8.992;2022-10-17T15:51:45;20.90;92.80
16970;DHT22;8601;48.718;8.992;2022-10-17T15:54:12;20.80;92.60
16970;DHT22;8601;48.718;8.992;2022-10-17T15:56:53;20.70;92.70
16970;DHT22;8601;48.718;8.992;2022-10-17T15:59:31;20.60;92.90
16970;DHT22;8601;48.718;8.992;2022-10-17T16:02:19;20.60;92.90
16970;DHT22;8601;48.718;8.992;2022-10-17T16:04:49;20.50;92.90
16970;DHT22;8601;48.718;8.992;2022-10-17T16:07:16;20.40;93.60
16970;DHT22;8601;48.718;8.992;2022-10-17T16:09:45;20.40;93.10
16970;DHT22;8601;48.718;8.992;2022-10-17T16:12:14;20.20;93.70
16970;DHT22;8601;48.718;8.992;2022-10-17T16:14:48;20.10;94.00
16970;DHT22;8601;48.718;8.992;2022-10-17T16:17:16;20.00;94.60
16970;DHT22;8601;48.718;8.992;2022-10-17T16:19:43;19.90;94.80
16970;DHT22;8601;48.718;8.992;2022-10-17T16:22:26;19.80;94.60
16970;DHT22;8601;48.718;8.992;2022-10-17T16:24:56;19.70;94.60
16970;DHT22;8601;48.718;8.992;2022-10-17T16:27:40;19.60;94.70
16970;DHT22;8601;48.718;8.992;2022-10-17T16:30:07;19.60;93.70
16970;DHT22;8601;48.718;8.992;2022-10-17T16:32:34;19.60;93.90
16970;DHT22;8601;48.718;8.992;2022-10-17T16:35:01;19.50;94.90
16970;DHT22;8601;48.718;8.992;2022-10-17T16:37:58;19.40;94.20
16970;DHT22;8601;48.718;8.992;2022-10-17T16:40:25;19.40;93.80
16970;DHT22;8601;48.718;8.992;2022-10-17T16:42:52;19.20;94.80
16970;DHT22;8601;48.718;8.992;2022-10-17T16:45:20;19.20;94.80
16970;DHT22;8601;48.718;8.992;2022-10-17T16:47:48;19.10;95.60
16970;DHT22;8601;48.718;8.992;2022-10-17T16:50:16;19.00;96.40
16970;DHT22;8601;48.718;8.992;2022-10-17T16:52:50;18.90;96.20
16970;DHT22;8601;48.718;8.992;2022-10-17T16:55:18;18.90;96.40
16970;DHT22;8601;48.718;8.992;2022-10-17T16:57:50;18.80;96.80
16970;DHT22;8601;48.718;8.992;2022-10-17T17:00:21;18.70;96.90